Time;durP1;ratioP1;P1;durP2;ratioP2;P2;SDS_P1;SDS_P2;PMS_P1;PMS_P2;Temp;Humidity;BMP_temperature;BMP_pressure;BME280_temperature;BME280_humidity;BME280_pressure;Samples;Min_cycle;Max_cycle;Signal;HPM_P1;HPM_P2
2022/06/07 00:01:45;;;;;;;4.70;2.83;;;;;;;18.12;52.90;146709.44;1628602;87;21040;-60
2022/06/07 00:04:12;;;;;;;4.58;2.45;;;;;;;18.12;53.16;146709.44;1628440;88;21620;-58
2022/06/07 00:06:39;;;;;;;6.05;2.70;;;;;;;18.06;53.51;146695.53;1628805;87;21071;-60
2022/06/07 00:09:07;;;;;;;5.37;2.62;;;;;;;18.02;53.67;146684.20;1628204;87;21552;-59
2022/06/07 00:11:34;;;;;;;6.83;2.25;;;;;;;17.96;53.94;146671.59;1643760;86;21091;-58
2022/06/07 00:14:02;;;;;;;5.20;2.70;;;;;;;17.93;54.12;146662.73;1628690;87;21107;-59
2022/06/07 00:16:30;;;;;;;5.00;2.40;;;;;;;17.90;54.05;146656.44;1628803;87;21067;-59
2022/06/07 00:18:57;;;;;;;4.17;2.40;;;;;;;17.90;54.10;146656.44;1628368;87;21088;-60
2022/06/07 00:21:24;;;;;;;6.10;2.77;;;;;;;17.90;54.09;146656.44;1628940;86;21108;-59
2022/06/07 00:23:51;;;;;;;4.37;2.37;;;;;;;17.92;54.43;146660.23;1628641;87;21566;-59
2022/06/07 00:26:18;;;;;;;4.10;2.75;;;;;;;17.94;54.54;146665.28;1628751;87;21079;-59
2022/06/07 00:28:45;;;;;;;5.03;2.75;;;;;;;17.95;54.58;146669.03;1628426;87;21060;-59
2022/06/07 00:31:13;;;;;;;5.53;2.77;;;;;;;17.94;54.70;146665.28;1628503;87;21106;-59
2022/06/07 00:33:41;;;;;;;4.55;2.60;;;;;;;17.88;54.65;146651.37;1628371;87;21183;-59
2022/06/07 00:36:09;;;;;;;4.55;2.35;;;;;;;17.84;54.66;146641.31;1628142;87;21052;-59
2022/06/07 00:38:36;;;;;;;4.58;2.50;;;;;;;17.79;54.68;146629.95;1628869;87;21067;-59
2022/06/07 00:41:04;;;;;;;9.23;2.30;;;;;;;17.75;54.92;146618.55;1627964;87;21103;-59
2022/06/07 00:43:31;;;;;;;5.75;2.47;;;;;;;17.68;55.07;146600.88;1627588;87;21482;-59
2022/06/07 00:45:58;;;;;;;4.35;2.47;;;;;;;17.63;55.08;146588.27;1628160;87;21079;-59
2022/06/07 00:48:26;;;;;;;3.22;1.80;;;;;;;17.54;55.21;146568.09;1627485;87;21059;-59
2022/06/07 00:50:57;;;;;;;4.35;2.80;;;;;;;17.52;55.25;146563.06;1628390;87;21063;-59
2022/06/07 00:53:34;;;;;;;6.95;2.58;;;;;;;17.49;55.29;146555.50;1603540;87;21119;-59
2022/06/07 00:56:06;;;;;;;3.60;2.50;;;;;;;17.45;55.43;146545.39;1628630;87;21071;-59
2022/06/07 00:58:35;;;;;;;5.90;2.52;;;;;;;17.41;55.75;146535.33;1640828;86;21042;-59
2022/06/07 01:01:03;;;;;;;5.53;2.25;;;;;;;17.32;55.53;146513.88;1637052;86;21058;-59
2022/06/07 01:03:30;;;;;;;5.35;2.30;;;;;;;17.30;55.46;146507.56;1618559;87;21066;-60
2022/06/07 01:10:43;;;;;;;4.80;2.45;;;;;;;17.30;55.46;146507.56;1616713;87;21087;-58
2022/06/07 01:11:15;;;;;;;3.70;2.02;;;;;;;17.23;56.14;146491.22;1620526;87;21115;-60
2022/06/07 01:13:44;;;;;;;6.17;2.42;;;;;;;17.19;56.35;146479.84;1642396;86;21056;-58
2022/06/07 01:16:13;;;;;;;3.47;2.12;;;;;;;17.14;56.31;146469.75;1628074;87;21667;-58
2022/06/07 01:18:42;;;;;;;4.50;2.52;;;;;;;17.14;56.31;146469.75;1628157;87;21115;-59
2022/06/07 01:21:36;;;;;;;5.53;2.62;;;;;;;17.12;56.48;146463.44;1628095;87;21068;-59
2022/06/07 01:24:05;;;;;;;4.37;2.58;;;;;;;17.09;56.76;146457.14;1628349;87;21107;-60
2022/06/07 01:26:41;;;;;;;4.37;2.42;;;;;;;17.07;56.92;146452.14;1627794;87;21071;-58
2022/06/07 01:29:10;;;;;;;5.33;2.67;;;;;;;17.06;57.01;146448.34;1628068;87;21072;-60
2022/06/07 01:31:38;;;;;;;7.67;2.55;;;;;;;17.04;57.31;146444.53;1628369;87;21071;-59
2022/06/07 01:34:05;;;;;;;5.75;3.08;;;;;;;17.02;57.79;146439.53;1629834;87;21076;-59
2022/06/07 01:36:33;;;;;;;5.75;3.47;;;;;;;17.02;59.14;146439.53;1624722;87;21103;-59
2022/06/07 01:41:54;;;;;;;5.80;2.87;;;;;;;17.02;59.09;146439.53;1621441;87;21911;-59
2022/06/07 01:44:28;;;;;;;4.97;3.15;;;;;;;17.07;60.05;146452.14;1621582;87;21641;-59
2022/06/07 01:46:58;;;;;;;5.12;2.90;;;;;;;17.06;60.56;146449.59;1623288;87;21525;-58
2022/06/07 01:49:26;;;;;;;4.75;3.15;;;;;;;17.06;60.56;146449.59;1621674;87;21048;-59
2022/06/07 01:51:55;;;;;;;8.50;3.65;;;;;;;17.11;60.71;146462.19;1621662;88;21060;-58
2022/06/07 01:54:23;;;;;;;8.30;3.58;;;;;;;17.14;62.45;146469.75;1623185;87;21525;-59
2022/06/07 01:56:51;;;;;;;9.35;4.03;;;;;;;17.15;64.13;146471.05;1621699;87;21079;-58
2022/06/07 01:59:19;;;;;;;8.88;4.33;;;;;;;17.13;66.96;146467.25;1621513;87;21666;-58
2022/06/07 02:01:49;;;;;;;6.42;4.70;;;;;;;17.11;68.78;146462.19;1621492;87;21146;-58
2022/06/07 02:04:17;;;;;;;5.83;3.65;;;;;;;17.01;68.86;146436.98;1621731;87;21100;-59
2022/06/07 02:06:44;;;;;;;8.38;3.90;;;;;;;17.01;68.86;146436.98;1621791;87;21091;-59
2022/06/07 02:09:14;;;;;;;5.40;3.42;;;;;;;17.01;68.40;146435.73;1621486;87;21100;-59
2022/06/07 02:11:42;;;;;;;9.33;3.35;;;;;;;16.98;67.81;146429.44;1618267;86;21372;-57
2022/06/07 02:14:11;;;;;;;7.22;3.75;;;;;;;16.97;67.20;146426.94;1611303;87;21111;-59
2022/06/07 02:16:38;;;;;;;5.72;3.58;;;;;;;16.96;67.01;146424.38;1611262;87;21028;-59
2022/06/07 02:19:06;;;;;;;6.22;3.30;;;;;;;16.97;65.72;146425.62;1611257;89;21116;-60
2022/06/07 02:21:39;;;;;;;6.08;3.40;;;;;;;16.97;65.72;146425.62;1615449;87;21005;-60
2022/06/07 02:24:08;;;;;;;7.10;3.15;;;;;;;16.98;65.02;146429.44;1635323;87;21059;-58
2022/06/07 02:26:48;;;;;;;8.35;2.92;;;;;;;17.00;64.29;146434.48;1621710;87;21525;-59
2022/06/07 02:29:20;;;;;;;6.17;2.90;;;;;;;17.00;63.80;146434.48;1621567;88;21083;-59
2022/06/07 02:31:52;;;;;;;6.65;3.12;;;;;;;17.03;63.32;146442.03;1621835;87;21518;-58
2022/06/07 02:34:21;;;;;;;6.12;3.30;;;;;;;17.09;63.19;146457.14;1621273;86;21544;-59
2022/06/07 02:36:53;;;;;;;5.08;2.92;;;;;;;17.12;63.65;146463.44;1614653;87;21056;-58
2022/06/07 02:39:20;;;;;;;6.95;3.75;;;;;;;17.12;64.59;146463.44;1614277;87;21072;-60
2022/06/07 02:41:49;;;;;;;6.55;3.90;;;;;;;17.14;66.96;146469.75;1611392;87;21060;-60
2022/06/07 02:44:16;;;;;;;7.33;4.35;;;;;;;17.14;66.96;146469.75;1611625;89;21565;-59
2022/06/07 02:46:43;;;;;;;6.17;3.85;;;;;;;17.22;66.46;146487.41;1620428;86;21054;-59
2022/06/07 02:49:10;;;;;;;6.17;4.25;;;;;;;17.22;66.46;146487.41;1655353;86;21055;-60
2022/06/07 02:51:38;;;;;;;11.28;5.45;;;;;;;17.26;67.01;146497.52;1649351;87;21552;-60
2022/06/07 02:54:06;;;;;;;6.67;4.87;;;;;;;17.35;65.47;146520.17;1649397;86;21613;-60
2022/06/07 02:56:34;;;;;;;6.83;4.78;;;;;;;17.35;65.47;146520.17;1649438;86;21064;-60
2022/06/07 02:59:01;;;;;;;7.50;4.72;;;;;;;17.41;65.50;146535.33;1614000;87;21068;-59
2022/06/07 03:01:31;;;;;;;9.05;5.42;;;;;;;17.46;65.82;146546.69;1611366;89;21589;-59
2022/06/07 03:03:59;;;;;;;8.35;5.78;;;;;;;17.52;66.07;146561.80;1611573;87;21505;-59
2022/06/07 03:06:28;;;;;;;7.87;5.45;;;;;;;17.54;66.27;146568.09;1611372;87;21040;-59
2022/06/07 03:08:55;;;;;;;7.55;5.10;;;;;;;17.63;66.30;146588.27;1623094;87;21170;-59
2022/06/07 03:11:24;;;;;;;13.20;5.20;;;;;;;17.67;66.44;146598.38;1622882;87;21028;-58
2022/06/07 03:13:51;;;;;;;7.40;4.62;;;;;;;17.73;66.49;146614.80;1622907;88;21075;-59
2022/06/07 03:16:20;;;;;;;8.88;5.55;;;;;;;17.78;66.47;146626.11;1622947;87;21083;-59
2022/06/07 03:18:47;;;;;;;5.60;4.22;;;;;;;17.84;66.83;146641.31;1637000;86;21075;-59
2022/06/07 03:21:15;;;;;;;6.50;4.17;;;;;;;17.89;66.81;146652.67;1649271;86;21063;-60
2022/06/07 03:23:43;;;;;;;7.87;5.17;;;;;;;17.95;67.43;146667.80;1649507;86;21573;-60
2022/06/07 03:26:13;;;;;;;5.83;4.05;;;;;;;17.98;67.42;146675.34;1649532;86;21063;-60
2022/06/07 03:28:42;;;;;;;5.97;4.00;;;;;;;18.03;65.78;146686.70;1635701;87;21087;-59
2022/06/07 03:31:15;;;;;;;7.10;4.28;;;;;;;18.08;65.25;146700.58;1611288;87;21586;-59
2022/06/07 03:33:46;;;;;;;9.23;4.30;;;;;;;18.13;65.21;146711.94;1611260;87;21630;-59
2022/06/07 03:36:22;;;;;;;9.43;3.80;;;;;;;18.17;65.14;146722.05;1639632;86;21047;-59
2022/06/07 03:38:50;;;;;;;9.83;4.33;;;;;;;18.20;64.79;146729.61;1649636;86;21020;-59
2022/06/07 03:41:22;;;;;;;9.28;4.15;;;;;;;18.27;64.64;146745.98;1649574;86;21558;-58
2022/06/07 03:43:52;;;;;;;9.28;4.70;;;;;;;18.32;64.61;146759.89;1649617;86;21553;-59
2022/06/07 03:46:24;;;;;;;6.47;4.45;;;;;;;18.37;64.36;146772.52;1625134;87;21549;-59
2022/06/07 03:48:51;;;;;;;;;;;;;;;18.46;63.52;146792.69;1614209;87;21362;-59
2022/06/07 03:51:23;;;;;;;8.60;4.03;;;;;;;18.51;62.58;146805.31;1611289;87;20146;-59
2022/06/07 03:53:51;;;;;;;6.42;3.72;;;;;;;18.57;62.58;146820.44;1611598;87;21012;-59
2022/06/07 03:56:21;;;;;;;8.90;4.17;;;;;;;18.65;61.91;146840.66;1629890;87;21052;-59
2022/06/07 03:58:48;;;;;;;7.78;4.37;;;;;;;18.71;61.92;146854.53;1649626;86;21144;-59
2022/06/07 04:01:19;;;;;;;8.50;4.42;;;;;;;18.77;62.10;146870.97;1649344;86;21099;-59
2022/06/07 04:03:51;;;;;;;7.83;5.00;;;;;;;18.85;62.55;146889.89;1644356;86;21079;-60
2022/06/07 04:06:25;;;;;;;8.98;4.83;;;;;;;18.93;63.06;146910.12;1611534;87;21039;-60
2022/06/07 04:08:55;;;;;;;12.00;5.83;;;;;;;19.01;63.19;146929.06;1611454;87;21132;-60
2022/06/07 04:11:25;;;;;;;10.43;5.00;;;;;;;19.08;62.58;146946.69;1611464;88;21035;-60
2022/06/07 04:13:58;;;;;;;12.05;5.72;;;;;;;19.16;61.63;146966.94;1612793;87;21128;-60
2022/06/07 04:16:29;;;;;;;9.35;5.35;;;;;;;19.21;61.24;146979.55;1649652;87;21059;-60
2022/06/07 04:19:04;;;;;;;9.35;4.92;;;;;;;19.26;60.03;146990.92;1649388;86;21138;-60
2022/06/07 04:21:32;;;;;;;9.13;5.10;;;;;;;19.33;59.48;147007.31;1649403;86;21075;-61
2022/06/07 04:24:11;;;;;;;8.63;5.03;;;;;;;19.38;58.76;147021.19;1616177;86;21040;-60
2022/06/07 04:26:39;;;;;;;8.40;5.58;;;;;;;19.45;59.38;147038.88;1611558;87;21103;-60
2022/06/07 04:29:07;;;;;;;9.03;5.30;;;;;;;19.50;59.36;147050.25;1611466;87;21024;-58
2022/06/07 04:31:34;;;;;;;9.20;4.42;;;;;;;19.58;59.01;147070.44;1643230;86;21096;-59
2022/06/07 04:34:03;;;;;;;7.78;4.65;;;;;;;19.65;59.02;147088.13;1649201;86;21135;-60
2022/06/07 04:36:31;;;;;;;11.60;4.47;;;;;;;19.70;58.70;147100.81;1649358;86;21028;-59
2022/06/07 04:39:02;;;;;;;7.92;4.10;;;;;;;19.77;58.46;147117.25;1649317;86;21134;-60
2022/06/07 04:41:31;;;;;;;6.60;3.52;;;;;;;19.83;57.42;147131.12;1623559;86;21064;-60
2022/06/07 04:44:01;;;;;;;6.83;3.83;;;;;;;19.88;55.91;147143.75;1611509;89;21043;-59
2022/06/07 04:46:28;;;;;;;7.45;2.62;;;;;;;19.93;54.36;147156.39;1611405;89;21541;-60
2022/06/07 04:48:57;;;;;;;7.87;2.70;;;;;;;19.96;52.11;147163.97;1627972;87;21118;-57
2022/06/07 04:51:31;;;;;;;6.42;3.52;;;;;;;20.03;52.21;147180.41;1611355;87;21541;-60
2022/06/07 04:54:06;;;;;;;7.87;3.50;;;;;;;20.08;52.52;147194.28;1609202;88;21485;-60
2022/06/07 04:56:36;;;;;;;5.87;2.90;;;;;;;20.15;52.41;147211.97;1611401;87;21132;-60
2022/06/07 04:59:06;;;;;;;7.25;3.35;;;;;;;20.21;52.92;147224.61;1627390;86;21023;-60
2022/06/07 05:01:37;;;;;;;7.95;3.22;;;;;;;20.30;53.00;147248.63;1649762;86;21584;-60
2022/06/07 05:04:06;;;;;;;4.62;2.85;;;;;;;20.36;52.14;147263.77;1630346;86;21517;-62
2022/06/07 05:06:39;;;;;;;5.70;3.30;;;;;;;20.40;52.17;147272.59;1614019;87;21561;-59
2022/06/07 05:09:17;;;;;;;7.65;3.83;;;;;;;20.45;52.38;147285.22;1598704;88;21111;-63
2022/06/07 05:11:50;;;;;;;6.10;4.35;;;;;;;20.53;52.46;147304.19;1597267;89;21111;-58
2022/06/07 05:14:19;;;;;;;11.53;5.33;;;;;;;20.64;53.05;147330.81;1597491;90;21075;-65
2022/06/07 05:16:48;;;;;;;8.40;5.40;;;;;;;20.70;51.84;147347.20;1619807;86;21097;-58
2022/06/07 05:19:19;;;;;;;13.28;4.92;;;;;;;20.81;51.83;147375.05;1649179;86;22176;-57
2022/06/07 05:21:47;;;;;;;6.35;3.40;;;;;;;20.98;52.42;147416.72;1649203;86;21553;-58
2022/06/07 05:24:16;;;;;;;7.17;4.15;;;;;;;21.12;50.57;147449.63;1646322;86;21088;-58
2022/06/07 05:26:48;;;;;;;6.15;3.47;;;;;;;21.19;50.27;147467.28;1649475;87;21060;-57
2022/06/07 05:29:27;;;;;;;6.80;3.40;;;;;;;21.23;49.81;147477.42;1649772;85;21043;-57
2022/06/07 05:31:55;;;;;;;8.73;3.00;;;;;;;21.31;49.20;147497.64;1651120;85;21064;-58
2022/06/07 05:34:22;;;;;;;6.83;2.77;;;;;;;21.42;49.04;147524.23;1649227;86;21103;-57
2022/06/07 05:36:51;;;;;;;6.85;3.37;;;;;;;21.51;47.86;147545.75;1649549;86;21063;-58
2022/06/07 05:39:27;;;;;;;4.75;2.80;;;;;;;21.60;47.52;147568.48;1649388;86;21107;-58
2022/06/07 05:41:56;;;;;;;5.45;2.30;;;;;;;21.65;47.03;147581.12;1650548;85;21059;-59
2022/06/07 05:44:25;;;;;;;3.83;2.05;;;;;;;21.75;46.69;147606.44;1649531;86;21183;-60
2022/06/07 05:46:54;;;;;;;2.98;1.77;;;;;;;21.92;45.72;147646.92;1649552;86;21046;-58
2022/06/07 05:49:23;;;;;;;5.03;1.82;;;;;;;22.12;45.50;147697.53;1648068;85;21200;-58
2022/06/07 05:51:55;;;;;;;5.70;2.30;;;;;;;22.65;44.08;147829.17;1648982;86;21525;-58
2022/06/07 05:54:23;;;;;;;3.98;2.15;;;;;;;24.17;40.66;148204.03;1649402;86;21075;-58
2022/06/07 05:56:50;;;;;;;6.35;2.10;;;;;;;25.68;37.23;148579.33;1649411;86;21056;-58
2022/06/07 05:59:18;;;;;;;4.08;2.00;;;;;;;27.02;35.87;148911.83;1649353;86;21068;-64
2022/06/07 06:01:45;;;;;;;6.53;1.77;;;;;;;28.19;34.24;149201.41;1649325;86;21100;-59
2022/06/07 06:04:14;;;;;;;3.52;1.52;;;;;;;29.36;32.40;149492.47;1649317;86;21052;-59
2022/06/07 06:06:43;;;;;;;3.55;1.72;;;;;;;30.52;30.78;149778.63;1649481;85;21598;-58
2022/06/07 06:11:58;;;;;;;6.40;1.77;;;;;;;33.55;26.39;150532.56;1649265;86;21592;-59
2022/06/07 06:14:27;;;;;;;2.35;1.10;;;;;;;33.45;25.39;150508.30;1649429;86;21067;-59
2022/06/07 06:16:57;;;;;;;3.52;1.35;;;;;;;33.59;25.21;150542.78;1649703;87;21080;-60
2022/06/07 06:19:38;;;;;;;;;;;;;;;33.70;25.04;150570.78;1651914;86;21103;-60
2022/06/07 06:22:05;;;;;;;3.15;1.52;;;;;;;34.19;24.92;150693.16;1649629;86;20131;-59
2022/06/07 06:24:32;;;;;;;3.12;1.10;;;;;;;35.13;23.52;150927.86;1649414;87;21060;-60
2022/06/07 06:26:59;;;;;;;3.58;1.47;;;;;;;35.77;22.83;151086.06;1649367;86;21103;-60
2022/06/07 06:29:29;;;;;;;3.52;1.20;;;;;;;35.71;21.63;151072.05;1649780;86;21553;-60
2022/06/07 06:31:57;;;;;;;2.77;1.22;;;;;;;34.89;22.26;150866.62;1649650;86;21041;-59
2022/06/07 06:34:29;;;;;;;4.97;1.52;;;;;;;35.10;22.46;150918.95;1645189;86;21091;-59
2022/06/07 06:36:54;;;;;;;5.05;1.60;;;;;;;34.61;23.09;150797.77;1623652;87;21529;-59
2022/06/07 06:39:23;;;;;;;5.20;1.52;;;;;;;34.85;23.00;150857.67;1656821;85;21035;-59
2022/06/07 06:41:51;;;;;;;4.53;1.42;;;;;;;35.95;22.22;151132.03;1624993;87;21584;-59
2022/06/07 06:44:20;;;;;;;4.25;1.17;;;;;;;37.10;20.53;151419.31;1654583;85;21098;-59
2022/06/07 06:46:50;;;;;;;3.60;1.45;;;;;;;36.50;20.89;151269.86;1654513;86;21055;-59
2022/06/07 06:49:20;;;;;;;4.30;1.30;;;;;;;36.29;21.21;151217.55;1654648;86;21549;-59
2022/06/07 06:51:48;;;;;;;2.90;1.27;;;;;;;36.80;20.94;151343.94;1624832;87;21063;-59
2022/06/07 06:54:18;;;;;;;3.92;1.32;;;;;;;37.70;20.33;151568.72;1616569;87;21039;-59
2022/06/07 06:56:53;;;;;;;2.17;1.10;;;;;;;38.93;19.37;151874.16;1628915;87;21106;-59
2022/06/07 06:59:22;;;;;;;2.60;1.02;;;;;;;40.02;18.00;152146.52;1660272;85;21115;-60
2022/06/07 07:01:51;;;;;;;3.08;1.00;;;;;;;40.87;17.72;152358.92;1654413;86;21573;-60
2022/06/07 07:04:20;;;;;;;2.40;1.10;;;;;;;42.12;17.04;152672.50;1629966;88;21059;-59
2022/06/07 07:06:50;;;;;;;3.62;1.12;;;;;;;43.23;16.11;152950.44;1625344;87;21051;-59
2022/06/07 07:09:22;;;;;;;3.20;1.27;;;;;;;43.91;15.24;153119.50;1654196;86;21071;-59
2022/06/07 07:11:54;;;;;;;3.42;1.30;;;;;;;43.23;15.53;152950.44;1595633;87;21132;-61
2022/06/07 07:14:23;;;;;;;4.05;1.30;;;;;;;41.32;16.30;152471.50;1563067;89;21096;-60
2022/06/07 07:16:52;;;;;;;3.98;1.12;;;;;;;39.16;17.85;151931.67;1601988;87;21049;-60
2022/06/07 07:19:21;;;;;;;2.33;1.10;;;;;;;38.48;18.88;151761.72;1600748;87;21142;-62
2022/06/07 07:21:51;;;;;;;2.50;1.20;;;;;;;39.64;17.82;152051.86;1618424;87;21027;-61
2022/06/07 07:24:23;;;;;;;7.20;1.43;;;;;;;39.07;18.19;151911.23;1634174;86;21031;-59
2022/06/07 07:26:52;;;;;;;5.05;1.22;;;;;;;38.90;18.77;151866.50;1620944;86;21054;-60
2022/06/07 07:29:24;;;;;;;2.25;1.00;;;;;;;39.93;17.98;152124.80;1638044;86;21008;-60
2022/06/07 07:31:53;;;;;;;2.45;1.02;;;;;;;40.71;17.24;152320.55;1613333;86;21573;-60
2022/06/07 07:34:21;;;;;;;3.47;1.27;;;;;;;41.77;16.55;152585.42;1634721;86;21055;-62
2022/06/07 07:36:53;;;;;;;3.33;1.37;;;;;;;40.45;16.67;152253.97;1628788;86;21066;-60
2022/06/07 07:39:21;;;;;;;2.65;0.90;;;;;;;37.54;18.73;151527.88;1642613;86;21066;-62
2022/06/07 07:41:51;;;;;;;6.13;1.17;;;;;;;36.62;19.74;151298.00;1647019;85;20997;-60
2022/06/07 07:44:21;;;;;;;6.43;1.23;;;;;;;37.03;19.98;151400.13;1674204;84;21070;-62
2022/06/07 07:46:55;;;;;;;7.58;2.52;;;;;;;37.06;19.85;151407.81;1650925;85;21041;-62
2022/06/07 07:49:24;;;;;;;4.37;1.70;;;;;;;36.10;20.32;151167.78;1643475;85;21058;-59
2022/06/07 07:51:54;;;;;;;4.10;1.25;;;;;;;34.79;21.22;150843.66;1650680;85;21512;-61
2022/06/07 07:54:24;;;;;;;3.80;1.57;;;;;;;32.83;22.97;150354.13;1627356;85;21147;-59
2022/06/07 07:56:53;;;;;;;5.12;1.30;;;;;;;31.37;24.56;149991.11;1619962;86;21522;-59
2022/06/07 07:59:21;;;;;;;6.70;1.50;;;;;;;30.77;25.24;149842.23;1643374;85;21021;-59
2022/06/07 08:01:51;;;;;;;6.55;1.42;;;;;;;30.37;26.03;149743.00;1655861;85;20956;-59
2022/06/07 08:04:19;;;;;;;4.35;1.42;;;;;;;30.00;26.46;149651.41;1647060;85;21039;-58
2022/06/07 08:06:47;;;;;;;4.37;1.37;;;;;;;29.60;27.15;149552.19;1645933;85;21121;-59
2022/06/07 08:09:15;;;;;;;4.22;1.70;;;;;;;29.45;27.55;149514.05;1646277;86;21031;-59
2022/06/07 08:11:44;;;;;;;5.72;1.52;;;;;;;29.16;27.89;149442.89;1646971;85;21062;-59
2022/06/07 08:14:16;;;;;;;5.53;1.72;;;;;;;30.03;27.15;149659.03;1653060;84;21051;-60
2022/06/07 08:16:43;;;;;;;5.95;1.40;;;;;;;31.31;26.20;149975.86;1649694;86;21094;-59
2022/06/07 08:19:11;;;;;;;3.77;1.80;;;;;;;32.17;25.02;150191.06;1654592;85;21183;-58
2022/06/07 08:21:41;;;;;;;3.22;1.47;;;;;;;31.51;25.36;150025.55;1643621;85;21096;-58
2022/06/07 08:24:08;;;;;;;4.37;1.82;;;;;;;30.23;26.85;149707.38;1650048;85;21110;-59
2022/06/07 08:26:35;;;;;;;3.40;1.85;;;;;;;29.60;27.37;149552.19;1651179;85;21031;-58
2022/06/07 08:29:03;;;;;;;6.55;1.67;;;;;;;29.50;27.71;149526.77;1661388;85;21109;-59
2022/06/07 08:31:32;;;;;;;4.53;1.82;;;;;;;30.16;27.21;149689.56;1659975;85;21023;-59
2022/06/07 08:39:33;;;;;;;5.58;1.70;;;;;;;31.61;24.85;150051.00;1649473;86;21102;-59
2022/06/07 08:42:26;;;;;;;4.80;1.72;;;;;;;32.20;24.39;150198.70;1642822;86;21008;-59
2022/06/07 08:45:16;;;;;;;5.42;1.50;;;;;;;32.39;24.22;150245.84;1628222;87;21496;-59
2022/06/07 08:48:01;;;;;;;4.00;1.60;;;;;;;32.76;23.93;150337.55;1623159;87;21117;-59
2022/06/07 08:50:35;;;;;;;4.42;1.75;;;;;;;32.93;23.82;150379.59;1624255;87;22225;-60
2022/06/07 08:53:20;;;;;;;4.03;1.50;;;;;;;33.56;23.12;150536.41;1649821;86;21776;-59
2022/06/07 08:55:53;;;;;;;3.77;1.42;;;;;;;34.40;22.26;150745.47;1643044;86;21751;-60
2022/06/07 08:58:37;;;;;;;6.25;1.50;;;;;;;34.21;22.61;150698.28;1648133;86;21067;-63
2022/06/07 09:01:31;;;;;;;4.55;1.52;;;;;;;33.81;22.37;150598.81;1626019;86;21070;-59
2022/06/07 09:04:25;;;;;;;3.25;1.55;;;;;;;32.47;23.76;150264.94;1627528;86;21102;-60
2022/06/07 09:06:57;;;;;;;4.00;1.60;;;;;;;31.74;24.88;150084.09;1643271;86;21046;-59
2022/06/07 09:12:14;;;;;;;5.50;1.80;;;;;;;31.44;25.92;150007.72;1598679;86;21073;-59
2022/06/07 09:14:55;;;;;;;4.90;1.25;;;;;;;31.28;26.12;149969.50;1609295;87;21115;-61
2022/06/07 09:17:38;;;;;;;3.33;1.72;;;;;;;30.96;26.40;149889.33;1596844;89;21587;-58
2022/06/07 09:20:14;;;;;;;6.28;1.80;;;;;;;30.63;26.73;149806.59;1641093;86;21662;-58
2022/06/07 09:22:46;;;;;;;4.28;1.80;;;;;;;29.96;27.31;149641.22;1643587;86;21091;-59
2022/06/07 09:25:23;;;;;;;3.50;1.67;;;;;;;29.53;27.95;149533.13;1645447;86;21083;-58
2022/06/07 09:27:50;;;;;;;3.30;1.70;;;;;;;29.35;28.09;149489.89;1644841;83;20988;-60
2022/06/07 09:30:29;;;;;;;3.42;1.75;;;;;;;29.31;28.22;149478.44;1646526;86;21051;-60
2022/06/07 09:32:56;;;;;;;3.40;1.62;;;;;;;29.30;28.53;149475.92;1638498;86;21096;-59
2022/06/07 09:35:40;;;;;;;3.92;1.85;;;;;;;29.28;28.51;149472.09;1646595;85;21039;-59
2022/06/07 09:38:16;;;;;;;4.65;2.10;;;;;;;29.29;28.25;149474.66;1619538;86;21062;-60
2022/06/07 09:40:54;;;;;;;5.95;2.20;;;;;;;29.12;28.78;149431.44;1622621;85;21099;-59
2022/06/07 09:43:34;;;;;;;3.60;1.90;;;;;;;28.91;28.95;149379.31;1629099;86;21093;-60
2022/06/07 09:46:10;;;;;;;4.60;1.87;;;;;;;28.55;29.41;149290.38;1630907;86;21058;-59
2022/06/07 09:48:44;;;;;;;4.55;2.25;;;;;;;28.25;29.82;149215.38;1631324;86;21117;-59
2022/06/07 09:51:19;;;;;;;5.20;1.90;;;;;;;27.93;30.30;149137.86;1632910;86;21111;-58
2022/06/07 09:53:57;;;;;;;3.10;1.75;;;;;;;27.73;30.72;149087.02;1619255;86;21077;-58
2022/06/07 09:56:52;;;;;;;3.80;1.67;;;;;;;27.69;31.01;149078.16;1622507;86;21041;-59
2022/06/07 10:00:04;;;;;;;7.25;1.90;;;;;;;27.70;30.71;149080.67;1614711;86;21701;-60
2022/06/07 10:02:44;;;;;;;5.08;1.90;;;;;;;27.62;30.85;149060.38;1606960;87;21111;-58
2022/06/07 10:05:22;;;;;;;5.62;2.35;;;;;;;27.57;30.78;149047.67;1630538;86;21133;-61
2022/06/07 10:08:07;;;;;;;4.00;2.30;;;;;;;27.48;30.92;149026.11;1620900;86;21054;-62
2022/06/07 10:11:02;;;;;;;4.25;2.12;;;;;;;27.31;30.90;148982.94;1620025;86;21135;-61
2022/06/07 10:14:00;;;;;;;3.42;2.10;;;;;;;27.25;30.97;148968.98;1625223;85;21093;-66
2022/06/07 10:16:52;;;;;;;4.65;2.00;;;;;;;27.19;31.28;148953.72;1600814;87;21104;-60
2022/06/07 10:19:54;;;;;;;6.90;2.00;;;;;;;27.22;31.06;148961.38;1616912;86;21553;-64
2022/06/07 10:22:55;;;;;;;6.30;2.90;;;;;;;27.30;30.97;148979.11;1623225;85;21022;-61
2022/06/07 10:25:34;;;;;;;5.10;2.55;;;;;;;27.36;31.16;148995.63;1617102;86;21059;-61
2022/06/07 10:28:31;;;;;;;4.03;2.20;;;;;;;27.24;31.06;148966.42;1632410;85;21015;-60
2022/06/07 10:31:11;;;;;;;4.70;1.95;;;;;;;26.92;31.42;148886.44;1627624;86;21099;-61
2022/06/07 10:33:47;;;;;;;6.65;2.22;;;;;;;26.65;31.98;148817.91;1638014;84;21039;-61
2022/06/07 10:36:47;;;;;;;5.65;2.17;;;;;;;26.54;31.90;148791.28;1629154;85;21102;-61
2022/06/07 10:39:38;;;;;;;5.72;2.15;;;;;;;26.58;32.00;148801.39;1641925;85;21110;-61
2022/06/07 10:42:36;;;;;;;9.00;2.77;;;;;;;26.70;32.28;148830.59;1656508;85;21160;-61
2022/06/07 10:45:26;;;;;;;6.17;2.10;;;;;;;26.79;32.22;148854.72;1672096;84;21126;-60
2022/06/07 10:48:23;;;;;;;3.83;1.92;;;;;;;26.90;32.37;148880.09;1662221;85;21558;-61
2022/06/07 10:50:56;;;;;;;4.55;2.00;;;;;;;27.04;31.69;148915.59;1653022;85;21074;-62
2022/06/07 10:53:39;;;;;;;5.15;2.58;;;;;;;27.07;31.40;148923.20;1640798;85;21074;-61
2022/06/07 10:56:22;;;;;;;4.35;2.30;;;;;;;26.98;31.76;148901.66;1652304;85;21100;-61
2022/06/07 10:58:53;;;;;;;6.55;3.02;;;;;;;26.97;31.85;148899.13;1651713;85;21544;-62
2022/06/07 11:01:40;;;;;;;6.65;2.42;;;;;;;27.03;31.62;148913.08;1652865;85;21058;-65
2022/06/07 11:10:17;;;;;;;5.78;2.10;;;;;;;27.85;30.65;149117.55;1629150;85;21109;-60
2022/06/07 11:13:01;;;;;;;5.87;2.52;;;;;;;28.05;30.39;149165.83;1622326;86;21090;-60
2022/06/07 11:15:55;;;;;;;6.00;2.45;;;;;;;27.97;30.63;149145.52;1634806;87;21588;-61
2022/06/07 11:18:25;;;;;;;6.00;2.60;;;;;;;27.88;31.07;149123.91;1613348;87;21631;-62
2022/06/07 11:21:06;;;;;;;4.37;2.52;;;;;;;27.61;31.00;149057.84;1605828;88;21082;-61
2022/06/07 11:24:09;;;;;;;4.85;2.37;;;;;;;27.59;31.13;149051.50;1629300;86;21065;-62
2022/06/07 11:26:58;;;;;;;5.62;2.12;;;;;;;27.62;30.85;149059.11;1604390;88;21584;-61
2022/06/07 11:29:31;;;;;;;6.28;2.35;;;;;;;27.43;31.08;149013.41;1623134;86;21062;-62
2022/06/07 11:32:01;;;;;;;4.03;2.33;;;;;;;27.27;31.48;148974.06;1625908;86;21098;-61
2022/06/07 11:34:35;;;;;;;5.58;2.22;;;;;;;27.22;31.98;148960.06;1582647;87;21128;-61
2022/06/07 11:37:20;;;;;;;8.45;2.62;;;;;;;27.24;31.93;148965.16;1631370;86;21019;-61
2022/06/07 11:39:56;;;;;;;4.33;2.35;;;;;;;27.17;31.48;148947.33;1665263;85;21012;-62
2022/06/07 11:42:36;;;;;;;6.83;2.60;;;;;;;26.93;32.17;148888.97;1623602;87;21590;-62
2022/06/07 11:45:18;;;;;;;5.58;2.30;;;;;;;26.77;32.31;148849.62;1630118;87;21081;-61
2022/06/07 11:47:50;;;;;;;10.08;2.52;;;;;;;26.52;32.35;148787.45;1627000;87;21098;-61
2022/06/07 11:50:31;;;;;;;6.45;2.67;;;;;;;26.34;32.58;148743.00;1621520;87;21090;-61
2022/06/07 11:53:03;;;;;;;;;;;;;;;26.14;32.99;148693.52;1635203;86;21054;-60
2022/06/07 11:55:35;;;;;;;6.12;2.35;;;;;;;25.96;33.32;148647.86;1638103;87;20139;-61
2022/06/07 11:58:07;;;;;;;5.17;2.65;;;;;;;25.77;33.42;148602.17;1660249;85;21541;-60
2022/06/07 12:00:43;;;;;;;4.03;1.92;;;;;;;25.69;33.70;148581.84;1666817;85;21023;-60
2022/06/07 12:03:28;;;;;;;6.12;2.40;;;;;;;25.75;33.53;148597.09;1660693;85;21084;-61
2022/06/07 12:06:10;;;;;;;4.05;2.10;;;;;;;26.17;33.37;148699.86;1635445;87;21120;-61
2022/06/07 12:08:58;;;;;;;6.75;2.52;;;;;;;26.71;32.94;148833.11;1661693;85;21129;-61
2022/06/07 12:11:32;;;;;;;6.58;2.60;;;;;;;27.20;32.03;148956.30;1592135;87;21538;-61
2022/06/07 12:14:31;;;;;;;4.72;2.27;;;;;;;27.45;31.56;149018.50;1618445;87;21073;-61
2022/06/07 12:17:03;;;;;;;5.87;2.50;;;;;;;27.51;31.64;149031.19;1631538;87;21090;-61